Gypsum, OH

2:46 PM EST on December 09, 2016 (GMT -0500)
Keller

Weather History for KPCW - April, 2013

Change the Weather History Date:

Saturday, April 13, 2013

  Actual Average (KTTF) Record (KTTF)
Temperature  
Mean Temperature 42 °F -  
Max Temperature 46 °F 57 °F 85 °F (1977)
Min Temperature 39 °F 36 °F 19 °F (1950)
Degree Days  
Heating Degree Days 22    
Moisture  
Dew Point 34 °F    
Average Humidity 76    
Maximum Humidity 87    
Minimum Humidity 65    
Precipitation  
Precipitation 0.00 in - - ()
Sea Level Pressure  
Sea Level Pressure 29.89 in    
Wind  
Wind Speed 15 mph ()    
Max Wind Speed 23 mph    
Max Gust Speed -    
Visibility 9.8 miles    
Events Rain    
Averages and records for this station are not official NWS values.
T = Trace of Precipitation, MM = Missing Value Source: Averaged Metar Reports

Daily Weather History Graph

Daily Weather History Graph

Search for Another Location

Airport or City:

Trip Planner

Search our weather history database for the weather conditions in past years. The results will help you decide how hot, cold, wet, or windy it might be!

Date:

Astronomy

Apr. 13, 2013 Rise Set
Actual Time 6:54 AM EDT 8:10 PM EDT
Civil Twilight 6:25 AM EDT 8:38 PM EDT
Nautical Twilight 5:51 AM EDT 9:13 PM EDT
Astronomical Twilight 5:15 AM EDT 9:49 PM EDT
Moon 8:43 AM EDT (4/13) 11:35 PM EDT (4/13)
Length of Visible Light 14h 12m
Length of Day
13h 15m
Waxing Crescent, 10% of the Moon is Illuminated
Apr 13
Waxing Crescent
Apr 18
First Quarter
Apr 25
Full
May 2
Last Quarter
May 9
New

Hourly Weather History & Observations

Time (EDT) Temp. Windchill Dew Point Humidity Pressure Visibility Wind Dir Wind Speed Gust Speed Precip Events Conditions
12:14 AM 42.8 °F 34.3 °F 37.4 °F 81% 29.81 in 10.0 mi WSW 19.6 mph - N/A   Overcast
12:34 AM 42.8 °F 34.5 °F 37.4 °F 81% 29.82 in 10.0 mi WSW 18.4 mph - N/A   Overcast
12:54 AM 42.8 °F 34.8 °F 37.4 °F 81% 29.82 in 10.0 mi WSW 17.3 mph - N/A   Overcast
1:14 AM 42.8 °F 35.4 °F 37.4 °F 81% 29.83 in 10.0 mi WSW 15.0 mph - N/A   Overcast
1:33 AM 42.8 °F 36.2 °F 37.4 °F 81% 29.83 in 10.0 mi WSW 12.7 mph - N/A   Overcast
1:54 AM 42.8 °F 34.8 °F 37.4 °F 81% 29.83 in 10.0 mi WSW 17.3 mph - N/A   Overcast
2:14 AM 42.8 °F 35.1 °F 35.6 °F 76% 29.82 in 10.0 mi WSW 16.1 mph - N/A   Overcast
2:33 AM 42.8 °F 35.1 °F 35.6 °F 76% 29.83 in 10.0 mi WSW 16.1 mph - N/A   Overcast
2:54 AM 41.9 °F 34.0 °F 34.9 °F 76% 29.83 in 10.0 mi WSW 16.1 mph - N/A   Overcast
3:14 AM 42.8 °F 36.2 °F 35.6 °F 76% 29.83 in 10.0 mi WSW 12.7 mph - N/A   Overcast
3:33 AM 41.0 °F 32.5 °F 35.6 °F 81% 29.83 in 10.0 mi WSW 17.3 mph - N/A   Overcast
3:54 AM 39.2 °F 29.3 °F 33.8 °F 81% 29.84 in 10.0 mi West 20.7 mph - N/A   Overcast
4:14 AM 41.0 °F 31.4 °F 33.8 °F 76% 29.84 in 10.0 mi WSW 21.9 mph - N/A   Overcast
4:33 AM 41.0 °F 32.5 °F 32.0 °F 70% 29.84 in 10.0 mi WSW 17.3 mph - N/A   Overcast
4:54 AM 39.2 °F 30.8 °F 32.0 °F 75% 29.85 in 10.0 mi WSW 15.0 mph - N/A   Overcast
5:13 AM 39.2 °F 29.8 °F 32.0 °F 75% 29.84 in 10.0 mi WSW 18.4 mph - N/A   Overcast
5:34 AM 39.2 °F 31.2 °F 32.0 °F 75% 29.84 in 10.0 mi WSW 13.8 mph - N/A   Overcast
5:54 AM 39.9 °F 31.8 °F 32.0 °F 73% 29.84 in 10.0 mi WSW 15.0 mph - N/A   Overcast
6:13 AM 39.2 °F 31.6 °F 32.0 °F 75% 29.84 in 10.0 mi WSW 12.7 mph - N/A   Overcast
6:34 AM 39.2 °F 31.2 °F 33.8 °F 81% 29.84 in 10.0 mi WSW 13.8 mph - N/A   Overcast
6:54 AM 39.9 °F 32.5 °F 32.0 °F 73% 29.84 in 10.0 mi WSW 12.7 mph - N/A   Overcast
7:13 AM 39.2 °F 31.6 °F 33.8 °F 81% 29.84 in 10.0 mi WSW 12.7 mph - N/A   Overcast
7:34 AM 39.2 °F 32.0 °F 33.8 °F 81% 29.84 in 10.0 mi WSW 11.5 mph - N/A   Overcast
7:53 AM 39.2 °F 32.5 °F 33.8 °F 81% 29.85 in 10.0 mi WSW 10.4 mph - N/A   Overcast
8:13 AM 41.0 °F 35.2 °F 33.8 °F 76% 29.85 in 10.0 mi SW 9.2 mph - N/A   Mostly Cloudy
8:34 AM 39.2 °F 32.0 °F 35.6 °F 87% 29.85 in 6.0 mi WSW 11.5 mph - N/A   Overcast
8:54 AM 41.0 °F 33.1 °F 35.6 °F 81% 29.85 in 10.0 mi WSW 15.0 mph - N/A   Overcast
9:14 AM 41.0 °F 32.8 °F 37.4 °F 87% 29.85 in 10.0 mi WSW 16.1 mph - N/A Rain Light Rain
9:34 AM 39.2 °F 29.8 °F 35.6 °F 87% 29.86 in 8.0 mi WSW 18.4 mph - N/A Rain Light Rain
9:53 AM 41.0 °F 32.5 °F 35.6 °F 81% 29.86 in 10.0 mi WSW 17.3 mph - N/A   Overcast
10:14 AM 42.8 °F 35.8 °F 35.6 °F 76% 29.86 in 10.0 mi WSW 13.8 mph - N/A   Overcast
10:33 AM 42.8 °F 34.8 °F 37.4 °F 81% 29.86 in 10.0 mi WSW 17.3 mph - N/A   Overcast
10:53 AM 42.8 °F 35.1 °F 37.4 °F 81% 29.86 in 10.0 mi WSW 16.1 mph - N/A   Overcast
11:08 AM 42.8 °F 35.1 °F 35.6 °F 76% 29.87 in 10.0 mi WSW 16.1 mph - N/A   Overcast
11:33 AM 42.8 °F 34.5 °F 35.6 °F 76% 29.87 in 10.0 mi WSW 18.4 mph - N/A   Overcast
11:53 AM 42.8 °F 34.8 °F 35.6 °F 76% 29.87 in 10.0 mi WSW 17.3 mph - N/A   Overcast
12:11 PM 44.6 °F 37.2 °F 35.6 °F 71% 29.87 in 10.0 mi WSW 17.3 mph - N/A   Overcast
12:25 PM 42.8 °F 34.8 °F 37.4 °F 81% 29.87 in 9.0 mi WSW 17.3 mph - N/A Rain Light Rain
12:49 PM 42.8 °F 34.5 °F 37.4 °F 81% 29.88 in 10.0 mi West 18.4 mph - N/A   Mostly Cloudy
1:11 PM 42.8 °F 35.4 °F 35.6 °F 76% 29.88 in 9.0 mi WSW 15.0 mph - N/A   Overcast
1:34 PM 46.4 °F 39.2 °F 35.6 °F 66% 29.87 in 10.0 mi WSW 18.4 mph - N/A   Mostly Cloudy
1:53 PM 44.6 °F 36.6 °F 35.6 °F 71% 29.88 in 10.0 mi WSW 19.6 mph - N/A Rain Light Rain
2:12 PM 42.8 °F 33.5 °F 37.4 °F 81% 29.89 in 10.0 mi WSW 23.0 mph - N/A   Overcast
2:30 PM 42.8 °F 33.8 °F 37.4 °F 81% 29.89 in 10.0 mi WSW 21.9 mph - N/A   Overcast
2:43 PM 42.8 °F 34.8 °F 37.4 °F 81% 29.89 in 7.0 mi WSW 17.3 mph - N/A Rain Light Rain
3:14 PM 44.6 °F 35.9 °F 35.6 °F 71% 29.89 in 10.0 mi WSW 23.0 mph - N/A   Overcast
3:23 PM 42.8 °F 34.8 °F 35.6 °F 76% 29.89 in 10.0 mi West 17.3 mph - N/A Rain Light Rain
3:54 PM 41.0 °F 32.8 °F 37.4 °F 87% 29.90 in 10.0 mi West 16.1 mph - N/A Rain Light Rain
4:13 PM 41.0 °F 32.2 °F 35.6 °F 81% 29.90 in 5.0 mi West 18.4 mph - N/A Rain Light Rain
4:34 PM 41.0 °F 32.2 °F 35.6 °F 81% 29.90 in 9.0 mi West 18.4 mph - N/A Rain Light Rain
4:54 PM 41.0 °F 33.1 °F 35.6 °F 81% 29.91 in 10.0 mi WSW 15.0 mph - N/A   Overcast
5:13 PM 41.0 °F 32.5 °F 35.6 °F 81% 29.92 in 10.0 mi West 17.3 mph - N/A Rain Light Rain
5:34 PM 39.2 °F 29.8 °F 33.8 °F 81% 29.93 in 10.0 mi West 18.4 mph - N/A Rain Light Rain
5:53 PM 39.2 °F 30.8 °F 33.8 °F 81% 29.93 in 10.0 mi West 15.0 mph - N/A   Overcast
6:14 PM 42.8 °F 35.1 °F 33.8 °F 70% 29.94 in 10.0 mi West 16.1 mph - N/A   Overcast
6:34 PM 42.8 °F 35.1 °F 32.0 °F 66% 29.95 in 10.0 mi West 16.1 mph - N/A   Overcast
6:53 PM 42.8 °F 36.6 °F 33.8 °F 70% 29.95 in 10.0 mi West 11.5 mph - N/A   Overcast
7:14 PM 42.8 °F 36.2 °F 32.0 °F 66% 29.95 in 10.0 mi West 12.7 mph - N/A   Overcast
7:34 PM 42.8 °F 36.6 °F 32.0 °F 66% 29.96 in 10.0 mi WSW 11.5 mph - N/A   Overcast
7:53 PM 41.0 °F 33.5 °F 30.2 °F 65% 29.96 in 10.0 mi West 13.8 mph - N/A   Overcast
8:14 PM 41.0 °F 33.9 °F 30.2 °F 65% 29.96 in 10.0 mi West 12.7 mph - N/A   Overcast
8:33 PM 41.0 °F 34.7 °F 30.2 °F 65% 29.97 in 10.0 mi West 10.4 mph - N/A   Overcast
8:53 PM 41.0 °F 35.8 °F 30.2 °F 65% 29.97 in 10.0 mi West 8.1 mph - N/A   Overcast
9:14 PM 41.0 °F 37.1 °F 32.0 °F 70% 29.98 in 10.0 mi WSW 5.8 mph - N/A   Overcast
9:33 PM 41.0 °F 36.4 °F 32.0 °F 70% 29.98 in 10.0 mi WSW 6.9 mph - N/A   Overcast
9:53 PM 41.0 °F 34.3 °F 32.9 °F 73% 29.98 in 10.0 mi WSW 11.5 mph - N/A   Overcast
10:14 PM 41.0 °F 34.7 °F 32.0 °F 70% 29.99 in 10.0 mi WSW 10.4 mph - N/A   Overcast
10:33 PM 41.0 °F 35.2 °F 32.0 °F 70% 30.00 in 10.0 mi WSW 9.2 mph - N/A   Overcast
10:54 PM 41.0 °F 35.8 °F 32.0 °F 70% 30.00 in 10.0 mi WSW 8.1 mph - N/A   Overcast
11:13 PM 41.0 °F 36.4 °F 33.8 °F 76% 30.00 in 10.0 mi WSW 6.9 mph - N/A   Overcast
11:33 PM 41.0 °F 34.7 °F 32.0 °F 70% 30.00 in 10.0 mi WSW 10.4 mph - N/A   Overcast
11:54 PM 41.0 °F 35.8 °F 32.0 °F 70% 30.00 in 10.0 mi WSW 8.1 mph - N/A   Overcast